This is the latest recevied weather packets stored in our database for station/object W0AKY-13. If no packets are shown the sender has not sent any weather packets the latest 1 day(s).
| Time | Temp. | Humidity | Pressure | Rain* | Wind** | Luminosity | Snow |
|---|---|---|---|---|---|---|---|
| 1778033060 | 11.11° C | 44% | 1014.8 hPa | 0 mm | 0 m/s | 0 W/m² | - |
| 1778032757 | 11.67° C | 42% | 1014.5 hPa | 0 mm | 0.45 m/s, 39° | 0 W/m² | - |
| 1778032454 | 11.67° C | 41% | 1014.2 hPa | 0 mm | 0.45 m/s, 41° | 0 W/m² | - |
| 1778032151 | 11.67° C | 42% | 1014.4 hPa | 0 mm | 0.45 m/s, 42° | 0 W/m² | - |
| 1778031848 | 11.67° C | 42% | 1014.2 hPa | 0 mm | 0.45 m/s, 36° | 0 W/m² | - |
| 1778031544 | 11.67° C | 40% | 1014.2 hPa | 0 mm | 0.45 m/s, 42° | 0 W/m² | - |
| 1778031243 | 11.67° C | 40% | 1014.3 hPa | 0 mm | 0.45 m/s, 44° | 0 W/m² | - |
| 1778030938 | 12.22° C | 40% | 1014.3 hPa | 0 mm | 0.45 m/s, 38° | 1 W/m² | - |
| 1778030635 | 12.22° C | 39% | 1014.4 hPa | 0 mm | 0.45 m/s, 39° | 1 W/m² | - |
| 1778030332 | 12.22° C | 40% | 1014.2 hPa | 0 mm | 0.89 m/s, 30° | 2 W/m² | - |
| 1778030029 | 12.22° C | 38% | 1014.3 hPa | 0 mm | 1.34 m/s, 341° | 3 W/m² | - |
| 1778029726 | 12.22° C | 38% | 1014.2 hPa | 0 mm | 0.45 m/s, 34° | 4 W/m² | - |
| 1778029424 | 12.78° C | 38% | 1014.1 hPa | 0 mm | 0.45 m/s, 38° | 6 W/m² | - |
| 1778029121 | 12.78° C | 39% | 1013.9 hPa | 0 mm | 0.45 m/s, 28° | 6 W/m² | - |
| 1778028818 | 12.78° C | 38% | 1013.9 hPa | 0 mm | 1.34 m/s, 56° | 6 W/m² | - |
| 1778028514 | 12.78° C | 42% | 1013.6 hPa | 0 mm | 0.45 m/s, 37° | 6 W/m² | - |
| 1778028212 | 12.78° C | 40% | 1013.8 hPa | 0 mm | 0.89 m/s, 356° | 7 W/m² | - |
| 1778027908 | 12.78° C | 40% | 1013.6 hPa | 0 mm | 0.45 m/s, 32° | 8 W/m² | - |
| 1778027604 | 12.78° C | 40% | 1013.4 hPa | 0 mm | 0.45 m/s, 33° | 8 W/m² | - |
| 1778027300 | 12.78° C | 38% | 1013.5 hPa | 0 mm | 0 m/s | 9 W/m² | - |
| 1778026997 | 12.78° C | 40% | 1013.4 hPa | 0 mm | 0.45 m/s, 4° | 11 W/m² | - |
| 1778026692 | 12.78° C | 39% | 1013.7 hPa | 0 mm | 0.45 m/s, 26° | 12 W/m² | - |
| 1778026390 | 12.78° C | 39% | 1013.8 hPa | 0 mm | 0.45 m/s, 40° | 14 W/m² | - |
| 1778026087 | 13.33° C | 42% | 1013.5 hPa | 0 mm | 0 m/s | 14 W/m² | - |
| 1778025785 | 13.33° C | 40% | 1013.5 hPa | 0 mm | 0.45 m/s, 38° | 14 W/m² | - |
* Rain latest hour (hover to see other rain measurements)
** Current wind speed in m/s (hover to see current wind gust speed)